Time;durP1;ratioP1;P1;durP2;ratioP2;P2;SDS_P1;SDS_P2;PMS_P1;PMS_P2;Temp;Humidity;BMP_temperature;BMP_pressure;BME280_temperature;BME280_humidity;BME280_pressure;Samples;Min_cycle;Max_cycle;Signal;HPM_P1;HPM_P2
2021/04/08 00:02:03;;;;;;;1999.90;999.90;;;;;;;2.37;100.00;63802.38;5061804;28;20455;-29
2021/04/08 00:04:49;;;;;;;1999.90;999.90;;;;;;;1.91;100.00;60197.97;5059037;28;20593;-29
2021/04/08 00:07:34;;;;;;;1999.90;999.90;;;;;;;2.37;100.00;72434.19;5058274;28;20498;-29
2021/04/08 00:10:20;;;;;;;1999.90;999.90;;;;;;;2.32;100.00;67693.31;5058850;28;20458;-29
2021/04/08 00:13:06;;;;;;;1999.90;999.90;;;;;;;2.31;100.00;65219.75;5058849;28;20462;-29
2021/04/08 00:15:51;;;;;;;1999.90;999.90;;;;;;;2.16;100.00;66412.53;5062875;28;20454;-29
2021/04/08 00:18:38;;;;;;;1999.90;999.90;;;;;;;2.65;100.00;70539.28;5057767;28;20601;-30
2021/04/08 00:21:24;;;;;;;1999.90;999.90;;;;;;;2.42;100.00;62402.34;5058388;28;20497;-29
2021/04/08 00:24:10;;;;;;;1999.90;999.90;;;;;;;2.21;100.00;59279.53;5058325;28;20447;-29
2021/04/08 00:26:55;;;;;;;1999.90;999.90;;;;;;;2.33;100.00;60168.00;5058863;28;20443;-29
2021/04/08 00:29:41;;;;;;;1999.90;999.90;;;;;;;2.20;100.00;60372.22;5060379;28;20534;-29
2021/04/08 00:32:27;;;;;;;1999.90;999.90;;;;;;;1.93;100.00;65286.16;5057856;28;20447;-29
2021/04/08 00:35:13;;;;;;;1999.90;999.90;;;;;;;2.31;100.00;71162.22;5057976;28;20534;-29
2021/04/08 00:37:59;;;;;;;1999.90;999.90;;;;;;;2.22;100.00;67854.28;5057598;28;21000;-29
2021/04/08 00:40:48;;;;;;;1999.90;999.90;;;;;;;2.37;100.00;66163.34;5066450;28;20451;-29
2021/04/08 00:43:34;;;;;;;1999.90;999.90;;;;;;;2.28;100.00;59389.78;5057036;28;20458;-29
2021/04/08 00:46:19;;;;;;;1999.90;999.90;;;;;;;2.26;100.00;56610.22;5057505;28;20715;-30
2021/04/08 00:49:07;;;;;;;1999.90;999.90;;;;;;;2.12;100.00;57874.09;5058467;28;20442;-29
2021/04/08 00:51:54;;;;;;;1999.90;999.90;;;;;;;2.12;100.00;61234.88;5057575;28;20870;-30
2021/04/08 00:54:42;;;;;;;1999.90;999.90;;;;;;;2.04;100.00;62190.00;5058973;28;20442;-31
2021/04/08 00:57:28;;;;;;;1999.90;999.90;;;;;;;2.12;100.00;64255.13;5062379;28;20482;-30
2021/04/08 01:00:15;;;;;;;1999.90;999.90;;;;;;;1.86;100.00;65139.22;5057532;28;20434;-30
2021/04/08 01:03:01;;;;;;;1999.90;999.90;;;;;;;1.98;100.00;68651.03;5057848;28;20602;-30
2021/04/08 01:05:47;;;;;;;1999.90;999.90;;;;;;;1.89;100.00;68762.38;5057670;28;20718;-30
2021/04/08 01:08:33;;;;;;;1999.90;999.90;;;;;;;2.22;100.00;75043.34;5058863;28;20534;-30
2021/04/08 01:11:19;;;;;;;1999.90;999.90;;;;;;;2.16;100.00;71792.25;5059362;28;20443;-30
2021/04/08 01:14:05;;;;;;;1999.90;999.90;;;;;;;2.26;100.00;70727.94;5057336;28;20859;-30
2021/04/08 01:16:56;;;;;;;1999.90;999.90;;;;;;;2.36;100.00;68888.00;5057672;28;20536;-30
2021/04/08 01:20:21;;;;;;;1999.90;999.90;;;;;;;2.28;100.00;72455.22;5057764;28;20475;-29
2021/04/08 01:23:51;;;;;;;1999.90;999.90;;;;;;;2.16;100.00;71468.00;5063714;28;20742;-29
2021/04/08 01:27:18;;;;;;;1999.90;999.90;;;;;;;2.13;100.00;73085.13;5057691;28;20479;-29
2021/04/08 01:30:24;;;;;;;1999.90;999.90;;;;;;;2.36;100.00;74087.72;5034678;28;20459;-29
2021/04/08 01:33:16;;;;;;;1999.90;999.90;;;;;;;2.06;100.00;69511.59;5063929;28;20708;-29
2021/04/08 01:36:07;;;;;;;1999.90;999.90;;;;;;;2.30;100.00;72133.97;5060401;28;20517;-29
2021/04/08 01:38:57;;;;;;;1999.90;999.90;;;;;;;2.35;100.00;67798.66;5058033;28;20613;-30
2021/04/08 01:41:44;;;;;;;1999.90;999.90;;;;;;;1.94;100.00;65305.56;5056944;28;20466;-29
2021/04/08 01:44:31;;;;;;;1999.90;999.90;;;;;;;2.14;100.00;70034.59;5057027;28;20548;-29
2021/04/08 01:47:18;;;;;;;1999.90;999.90;;;;;;;2.10;100.00;70074.72;5063746;28;20466;-29
2021/04/08 01:50:09;;;;;;;1999.90;999.90;;;;;;;1.99;100.00;68588.94;5061438;28;20446;-29
2021/04/08 01:52:57;;;;;;;1999.90;999.90;;;;;;;2.26;100.00;71119.97;5061215;28;20442;-29
2021/04/08 01:55:43;;;;;;;1999.90;999.90;;;;;;;1.89;100.00;64048.69;5060692;28;20861;-29
2021/04/08 01:58:34;;;;;;;1999.90;999.90;;;;;;;2.16;100.00;70786.03;5064209;28;20584;-29
2021/04/08 02:01:20;;;;;;;1999.90;999.90;;;;;;;2.14;100.00;67252.75;5062584;28;20442;-29
2021/04/08 02:04:08;;;;;;;1999.90;999.90;;;;;;;2.14;100.00;69277.56;5065582;28;20538;-29
2021/04/08 02:06:56;;;;;;;1999.90;999.90;;;;;;;2.33;100.00;66836.41;5061436;28;20440;-29
2021/04/08 02:09:42;;;;;;;1999.90;999.90;;;;;;;2.19;100.00;60879.00;5060334;28;20868;-29
2021/04/08 02:12:29;;;;;;;1999.90;999.90;;;;;;;2.22;100.00;58093.69;5062408;28;20447;-29
2021/04/08 02:15:18;;;;;;;1999.90;999.90;;;;;;;2.20;100.00;65483.59;5062313;28;20499;-29
2021/04/08 02:18:05;;;;;;;1999.90;999.90;;;;;;;2.29;100.00;65475.53;5065888;28;20533;-29
2021/04/08 02:20:53;;;;;;;1999.90;999.90;;;;;;;2.28;100.00;60572.09;5061285;28;20561;-29
2021/04/08 02:23:42;;;;;;;1999.90;999.90;;;;;;;2.08;100.00;56469.88;5061153;28;20439;-30
2021/04/08 02:26:30;;;;;;;1999.90;999.90;;;;;;;1.91;100.00;55981.03;5059143;28;20447;-29
2021/04/08 02:29:18;;;;;;;1999.90;999.90;;;;;;;2.26;100.00;63972.28;5061894;28;20522;-29
2021/04/08 02:32:08;;;;;;;1999.90;999.90;;;;;;;2.28;100.00;59026.06;5062061;28;20485;-29
2021/04/08 02:34:54;;;;;;;1999.90;999.90;;;;;;;2.31;100.00;53905.44;5061436;28;20732;-29
2021/04/08 02:37:41;;;;;;;1999.90;999.90;;;;;;;2.29;100.00;53207.41;5061063;28;20534;-29
2021/04/08 02:40:27;;;;;;;1999.90;999.90;;;;;;;2.48;100.00;53433.91;5059482;28;20443;-29
2021/04/08 02:43:13;;;;;;;1999.90;999.90;;;;;;;2.37;100.00;46475.59;5062995;28;20804;-29
2021/04/08 02:45:59;;;;;;;1999.90;999.90;;;;;;;2.33;100.00;47217.72;5061031;28;20457;-29
2021/04/08 02:48:44;;;;;;;1999.90;999.90;;;;;;;2.25;100.00;49241.25;5060595;28;20494;-29
2021/04/08 02:51:34;;;;;;;1999.90;999.90;;;;;;;2.41;100.00;52610.59;5061189;28;20570;-29
2021/04/08 02:54:31;;;;;;;1999.90;999.90;;;;;;;2.33;100.00;55072.97;5059676;28;20895;-29
2021/04/08 02:57:21;;;;;;;1999.90;999.90;;;;;;;2.21;100.00;53338.69;5062257;28;20498;-29
2021/04/08 03:00:10;;;;;;;1999.90;999.90;;;;;;;2.14;100.00;48579.47;5059876;28;20442;-29
2021/04/08 03:02:59;;;;;;;1999.90;999.90;;;;;;;2.16;100.00;48744.88;5059903;28;20470;-29
2021/04/08 03:05:47;;;;;;;1999.90;999.90;;;;;;;2.44;100.00;50023.31;5061203;28;20451;-30
2021/04/08 03:08:35;;;;;;;1999.90;999.90;;;;;;;2.30;100.00;43607.78;5059785;28;20728;-29
2021/04/08 03:11:25;;;;;;;1999.90;999.90;;;;;;;2.61;100.00;41449.19;5060781;28;20442;-29
2021/04/08 03:14:14;;;;;;;1999.90;999.90;;;;;;;2.28;100.00;36184.16;5059924;28;20545;-29
2021/04/08 03:17:01;;;;;;;1999.90;999.90;;;;;;;2.11;100.00;35500.56;5063847;28;20462;-29
2021/04/08 03:19:49;;;;;;;1999.90;999.90;;;;;;;2.45;100.00;36257.13;5060265;28;20479;-29
2021/04/08 03:22:38;;;;;;;1999.90;999.90;;;;;;;2.46;100.00;36066.88;5061481;28;20447;-29
2021/04/08 03:25:24;;;;;;;1999.90;999.90;;;;;;;2.35;100.00;33650.34;5061643;28;20451;-29
2021/04/08 03:28:13;;;;;;;1999.90;999.90;;;;;;;2.16;100.00;31644.84;5059173;28;20494;-29
2021/04/08 03:31:02;;;;;;;1999.90;999.90;;;;;;;2.26;100.00;33336.31;5061676;28;20451;-29
2021/04/08 03:33:50;;;;;;;1999.90;999.90;;;;;;;2.25;100.00;34173.59;5060116;28;20514;-29
2021/04/08 03:36:37;;;;;;;1999.90;999.90;;;;;;;2.56;100.00;30630.50;5059317;28;20443;-29
2021/04/08 03:39:22;;;;;;;1999.90;999.90;;;;;;;2.36;100.00;26218.69;5058959;28;20451;-28
2021/04/08 03:42:12;;;;;;;1999.90;999.90;;;;;;;2.45;100.00;29001.97;5062339;28;20528;-28
2021/04/08 03:44:58;;;;;;;1999.90;999.90;;;;;;;2.02;100.00;24830.91;5064484;28;20443;-28
2021/04/08 03:47:46;;;;;;;1999.90;999.90;;;;;;;2.22;100.00;35821.28;5060139;28;20519;-29
2021/04/08 03:50:32;;;;;;;1999.90;999.90;;;;;;;2.26;100.00;33484.38;5059395;28;20501;-28
2021/04/08 03:53:19;;;;;;;1999.90;999.90;;;;;;;2.38;100.00;35768.28;5060584;28;20503;-28
2021/04/08 03:56:07;;;;;;;1999.90;999.90;;;;;;;2.16;100.00;34750.38;5057918;28;20462;-28
2021/04/08 03:58:53;;;;;;;1999.90;999.90;;;;;;;2.12;100.00;37218.44;5059775;28;20482;-29
2021/04/08 04:01:42;;;;;;;1999.90;999.90;;;;;;;2.23;100.00;41691.00;5060719;28;20487;-28
2021/04/08 04:04:29;;;;;;;1999.90;999.90;;;;;;;2.52;100.00;44059.63;5059130;28;20447;-31
2021/04/08 04:07:16;;;;;;;1999.90;999.90;;;;;;;2.32;100.00;39608.63;5059565;28;20515;-28
2021/04/08 04:10:03;;;;;;;1999.90;999.90;;;;;;;2.49;100.00;38923.72;5059249;28;20442;-28
2021/04/08 04:12:50;;;;;;;1999.90;999.90;;;;;;;2.39;100.00;38937.34;5057425;28;20443;-28
2021/04/08 04:15:38;;;;;;;1999.90;999.90;;;;;;;2.61;100.00;37426.16;5060322;28;20463;-29
2021/04/08 04:18:25;;;;;;;1999.90;999.90;;;;;;;2.30;100.00;32846.88;5060579;28;20876;-29
2021/04/08 04:21:11;;;;;;;1999.90;999.90;;;;;;;2.57;100.00;35569.25;5018851;28;20723;-28
2021/04/08 04:23:58;;;;;;;1999.90;999.90;;;;;;;2.09;100.00;30234.47;5022937;28;20453;-29
2021/04/08 04:26:46;;;;;;;1999.90;999.90;;;;;;;2.26;100.00;36054.47;5019489;28;20713;-29
2021/04/08 04:29:32;;;;;;;1999.90;999.90;;;;;;;2.14;100.00;35946.44;5018945;28;20437;-29
2021/04/08 04:32:26;;;;;;;1999.90;999.90;;;;;;;1.97;100.00;38811.03;5018038;28;20445;-29
2021/04/08 04:35:12;;;;;;;1999.90;999.90;;;;;;;2.36;100.00;44468.38;5019390;28;20445;-29
2021/04/08 04:37:58;;;;;;;1999.90;999.90;;;;;;;2.23;100.00;38823.38;5022361;28;20508;-29
2021/04/08 04:40:44;;;;;;;1999.90;999.90;;;;;;;2.44;100.00;38013.00;5021686;28;20445;-30
2021/04/08 04:43:30;;;;;;;1999.90;999.90;;;;;;;2.17;100.00;36538.69;5019723;28;20440;-29
2021/04/08 04:46:16;;;;;;;1999.90;999.90;;;;;;;2.52;100.00;36226.44;5018797;28;20444;-28
2021/04/08 04:49:09;;;;;;;1999.90;999.90;;;;;;;2.21;100.00;30103.03;5017734;28;20519;-29
2021/04/08 04:51:55;;;;;;;1999.90;999.90;;;;;;;2.23;100.00;33856.50;5021308;28;20452;-29
2021/04/08 04:54:42;;;;;;;1999.90;999.90;;;;;;;2.59;100.00;33960.59;5020367;28;20675;-29
2021/04/08 04:57:27;;;;;;;1999.90;999.90;;;;;;;2.58;100.00;26116.00;5018440;28;20565;-29
2021/04/08 05:00:14;;;;;;;1999.90;999.90;;;;;;;2.75;100.00;21849.72;5017564;28;20916;-29
2021/04/08 05:03:00;;;;;;;1999.90;999.90;;;;;;;2.22;100.00;16366.53;5017950;28;20596;-29
2021/04/08 05:05:46;;;;;;;1999.90;999.90;;;;;;;2.15;100.00;23412.38;5020021;28;20461;-29
2021/04/08 05:08:31;;;;;;;1999.90;999.90;;;;;;;2.30;100.00;28949.38;5019508;28;20441;-29
2021/04/08 05:11:18;;;;;;;1999.90;999.90;;;;;;;2.28;100.00;27732.88;5018824;28;20612;-29
2021/04/08 05:14:03;;;;;;;1999.90;999.90;;;;;;;2.34;100.00;25020.28;5018605;28;20591;-29
2021/04/08 05:16:49;;;;;;;1999.90;999.90;;;;;;;2.17;100.00;22254.94;5018310;28;20469;-29
2021/04/08 05:19:35;;;;;;;1999.90;999.90;;;;;;;2.00;100.00;24509.91;5032904;28;20491;-29
2021/04/08 05:22:21;;;;;;;1999.90;999.90;;;;;;;2.54;100.00;28364.72;5060755;28;20454;-29
2021/04/08 05:25:08;;;;;;;1999.90;999.90;;;;;;;2.53;100.00;25582.25;5063007;28;20447;-29
2021/04/08 05:27:54;;;;;;;1999.90;999.90;;;;;;;2.36;100.00;21524.19;5061737;28;20455;-29
2021/04/08 05:30:40;;;;;;;1999.90;999.90;;;;;;;2.42;100.00;19310.25;5061998;28;20447;-29
2021/04/08 05:33:26;;;;;;;1999.90;999.90;;;;;;;2.35;100.00;17677.56;5062676;28;20447;-29
2021/04/08 05:36:15;;;;;;;1999.90;999.90;;;;;;;2.27;100.00;13578.34;5043874;28;20607;-29
2021/04/08 05:39:01;;;;;;;1999.90;999.90;;;;;;;2.53;100.00;16121.03;5059174;28;20569;-29
2021/04/08 05:41:46;;;;;;;1999.90;999.90;;;;;;;2.69;100.00;8964.94;5061774;28;20446;-30
2021/04/08 05:44:33;;;;;;;1999.90;999.90;;;;;;;2.63;100.00;7452.09;5061548;28;20743;-29
2021/04/08 05:47:18;;;;;;;1999.90;999.90;;;;;;;2.74;100.00;5815.19;5061647;28;20548;-29
2021/04/08 05:50:06;;;;;;;1999.90;999.90;;;;;;;2.53;100.00;1933.31;5062813;28;20537;-29
2021/04/08 05:52:52;;;;;;;1999.90;999.90;;;;;;;2.73;100.00;-371.41;5063733;28;20783;-29
2021/04/08 05:55:38;;;;;;;1999.90;999.90;;;;;;;2.42;100.00;-3389.19;5061351;28;20451;-30
2021/04/08 05:58:24;;;;;;;1999.90;999.90;;;;;;;2.79;100.00;-998.63;5062220;28;20526;-29
2021/04/08 06:01:11;;;;;;;1999.90;999.90;;;;;;;3.20;100.00;-1964.47;5060706;28;20558;-29
2021/04/08 06:03:57;;;;;;;1999.90;999.90;;;;;;;2.88;100.00;-5688.75;5064549;28;20442;-30
2021/04/08 06:06:42;;;;;;;1999.90;999.90;;;;;;;3.43;100.00;-5475.69;5062682;28;20573;-29
2021/04/08 06:09:31;;;;;;;1999.90;999.90;;;;;;;3.21;100.00;-9120.28;5061471;28;20726;-30
2021/04/08 06:12:17;;;;;;;1999.90;999.90;;;;;;;3.17;100.00;-9728.78;5061391;28;20525;-30
2021/04/08 06:15:02;;;;;;;1999.90;999.90;;;;;;;3.33;100.00;-8694.06;5061168;28;20961;-29
2021/04/08 06:17:49;;;;;;;1999.90;999.90;;;;;;;3.33;100.00;-12109.19;5059992;28;20506;-30
2021/04/08 06:20:35;;;;;;;1999.90;999.90;;;;;;;3.07;100.00;-11151.09;5061742;28;20721;-30
2021/04/08 06:23:22;;;;;;;1999.90;999.90;;;;;;;3.05;100.00;-6575.25;5059857;28;20489;-30
2021/04/08 06:26:08;;;;;;;1999.90;999.90;;;;;;;2.80;100.00;-9445.78;5061636;28;20439;-30
2021/04/08 06:28:55;;;;;;;1999.90;999.90;;;;;;;3.07;100.00;-5486.00;5068922;28;20478;-30
2021/04/08 06:31:46;;;;;;;1999.90;999.90;;;;;;;3.22;100.00;-7332.66;5060417;28;20466;-31
2021/04/08 06:34:34;;;;;;;1999.90;999.90;;;;;;;3.53;100.00;-9728.47;5060394;28;20446;-30
2021/04/08 06:37:21;;;;;;;1999.90;999.90;;;;;;;3.60;100.00;-14121.44;5060629;28;20462;-30
2021/04/08 06:40:08;;;;;;;1999.90;999.90;;;;;;;3.90;100.00;-14773.59;5060262;28;20478;-30
2021/04/08 06:42:54;;;;;;;1999.90;999.90;;;;;;;3.66;100.00;-16889.16;5059947;28;20292;-31
2021/04/08 06:45:48;;;;;;;1999.90;999.90;;;;;;;3.99;100.00;-18016.91;5062095;28;20628;-31
2021/04/08 06:48:44;;;;;;;1999.90;999.90;;;;;;;3.91;100.00;-18014.63;5060360;28;20200;-30
2021/04/08 06:51:32;;;;;;;1999.90;999.90;;;;;;;4.10;100.00;-18019.72;5059761;28;20627;-31
2021/04/08 06:54:19;;;;;;;1999.90;999.90;;;;;;;3.99;100.00;-18016.91;5060997;28;20208;-31
2021/04/08 06:57:06;;;;;;;1999.90;999.90;;;;;;;3.91;100.00;-18014.75;5059120;28;20274;-31
2021/04/08 06:59:51;;;;;;;1999.90;999.90;;;;;;;4.16;100.00;-18021.34;5058413;28;20195;-31
2021/04/08 07:02:37;;;;;;;1999.90;999.90;;;;;;;4.13;100.00;-18020.66;5056248;28;20739;-31
2021/04/08 07:05:23;;;;;;;1999.90;999.90;;;;;;;4.17;100.00;-18021.47;5042157;28;20277;-31
2021/04/08 07:08:10;;;;;;;1999.90;999.90;;;;;;;4.21;100.00;-18022.56;5048668;28;20274;-32
2021/04/08 07:10:58;;;;;;;1999.90;999.90;;;;;;;4.37;100.00;-18027.00;5059370;28;20216;-31
2021/04/08 07:13:44;;;;;;;1999.90;999.90;;;;;;;4.48;100.00;-18029.81;5058705;28;20201;-30
2021/04/08 07:16:31;;;;;;;1999.90;999.90;;;;;;;4.76;100.00;-18037.19;5058823;28;20199;-31
2021/04/08 07:19:20;;;;;;;1999.90;999.90;;;;;;;4.04;100.00;-18018.13;5058461;28;20244;-31
2021/04/08 07:22:09;;;;;;;1999.90;999.90;;;;;;;4.59;100.00;-18032.75;5061459;28;20192;-31
2021/04/08 07:24:56;;;;;;;1999.90;999.90;;;;;;;4.98;100.00;-18042.97;5058543;28;20258;-31
2021/04/08 07:27:42;;;;;;;1999.90;999.90;;;;;;;4.98;100.00;-18043.09;5058892;28;20243;-31
2021/04/08 07:30:27;;;;;;;1999.90;999.90;;;;;;;4.78;100.00;-18037.72;5058981;28;20355;-31
2021/04/08 07:33:14;;;;;;;1999.90;999.90;;;;;;;5.64;100.00;-18060.56;5058608;28;20239;-32
2021/04/08 07:36:02;;;;;;;1999.90;999.90;;;;;;;5.80;100.00;-18064.84;5059103;28;20199;-31
2021/04/08 07:38:49;;;;;;;1999.90;999.90;;;;;;;6.89;100.00;-18093.56;5058687;28;20230;-30
2021/04/08 07:41:36;;;;;;;1999.90;999.90;;;;;;;6.76;100.00;-18090.06;5057986;28;20511;-32
2021/04/08 07:44:22;;;;;;;1999.90;999.90;;;;;;;6.44;100.00;-18081.75;5057760;28;20292;-31
2021/04/08 07:47:17;;;;;;;1999.90;999.90;;;;;;;5.99;100.00;-18069.69;5058237;28;20198;-31
2021/04/08 07:50:12;;;;;;;1999.90;999.90;;;;;;;6.80;100.00;-18091.16;5058805;28;20687;-31
2021/04/08 07:52:58;;;;;;;1999.90;999.90;;;;;;;6.73;100.00;-18089.28;5062583;28;20198;-31
2021/04/08 07:55:44;;;;;;;1999.90;999.90;;;;;;;6.30;100.00;-18078.00;5057643;28;20221;-31
2021/04/08 07:58:30;;;;;;;1999.90;999.90;;;;;;;5.15;100.00;-18047.66;5057600;28;20222;-31
2021/04/08 08:01:27;;;;;;;1999.90;999.90;;;;;;;5.72;100.00;-18062.56;5056678;28;20513;-31
2021/04/08 08:04:20;;;;;;;1999.90;999.90;;;;;;;5.36;100.00;-18053.16;5058496;28;20223;-31
2021/04/08 08:07:06;;;;;;;1999.90;999.90;;;;;;;5.96;100.00;-18068.88;5057381;28;20209;-31
2021/04/08 08:09:51;;;;;;;1999.90;999.90;;;;;;;6.63;100.00;-18086.72;5057489;28;20196;-31
2021/04/08 08:12:37;;;;;;;1999.90;999.90;;;;;;;6.67;100.00;-18087.78;5058482;28;20202;-32
2021/04/08 08:15:27;;;;;;;1999.90;999.90;;;;;;;6.32;100.00;-18078.53;5050855;28;20611;-31
2021/04/08 08:18:26;;;;;;;1999.90;999.90;;;;;;;7.28;100.00;-18103.88;5040786;28;20223;-31
2021/04/08 08:21:13;;;;;;;1999.90;999.90;;;;;;;7.76;100.00;-18116.47;5050824;28;20193;-32
2021/04/08 08:23:59;;;;;;;1999.90;999.90;;;;;;;7.71;100.00;-18115.28;5049771;28;20204;-33
2021/04/08 08:26:48;;;;;;;1999.90;999.90;;;;;;;7.50;100.00;-18109.78;5057560;28;20254;-32
2021/04/08 08:29:40;;;;;;;1999.90;999.90;;;;;;;7.07;100.00;-18098.38;5057505;28;20246;-31
2021/04/08 08:32:27;;;;;;;1999.90;999.90;;;;;;;7.66;100.00;-18113.81;5056238;28;20197;-31
2021/04/08 08:35:20;;;;;;;1999.90;999.90;;;;;;;8.29;100.00;-18130.69;5056082;28;20204;-31
2021/04/08 08:38:12;;;;;;;1999.90;999.90;;;;;;;8.27;100.00;-18130.00;5056707;28;20224;-31
2021/04/08 08:41:00;;;;;;;1999.90;999.90;;;;;;;8.38;100.00;-18132.97;5056512;28;20195;-31
2021/04/08 08:43:45;;;;;;;1999.90;999.90;;;;;;;7.33;100.00;-18105.09;5056575;28;20195;-31
2021/04/08 08:46:33;;;;;;;1999.90;999.90;;;;;;;7.79;100.00;-18117.41;5056886;28;20196;-32
2021/04/08 08:49:23;;;;;;;1999.90;999.90;;;;;;;7.59;100.00;-18112.06;5056057;28;20200;-32
2021/04/08 08:52:13;;;;;;;1999.90;999.90;;;;;;;7.53;100.00;-18110.44;5056866;28;20201;-31
2021/04/08 08:55:00;;;;;;;1999.90;999.90;;;;;;;7.64;100.00;-18113.25;5056318;28;20526;-32
2021/04/08 08:57:50;;;;;;;1999.90;999.90;;;;;;;7.61;100.00;-18112.59;5057712;28;20944;-31
2021/04/08 09:00:35;;;;;;;1999.90;999.90;;;;;;;8.18;100.00;-18127.59;5061273;28;20220;-32
2021/04/08 09:03:22;;;;;;;1999.90;999.90;;;;;;;6.29;100.00;-18077.72;5060533;28;20736;-31
2021/04/08 09:06:09;;;;;;;1999.90;999.90;;;;;;;6.88;100.00;-18093.44;5060808;28;20208;-31
2021/04/08 09:08:59;;;;;;;1999.90;999.90;;;;;;;6.50;100.00;-18083.22;5060177;28;20226;-31
2021/04/08 09:11:45;;;;;;;1999.90;999.90;;;;;;;6.98;100.00;-18095.97;5060551;28;20202;-31
2021/04/08 09:14:32;;;;;;;1999.90;999.90;;;;;;;6.28;100.00;-18077.34;5062828;28;20220;-31
2021/04/08 09:17:40;;;;;;;1999.90;999.90;;;;;;;7.17;100.00;-18101.06;5062837;28;20200;-31
2021/04/08 09:20:28;;;;;;;1999.90;999.90;;;;;;;7.37;100.00;-18106.16;5060669;28;20232;-31
2021/04/08 09:23:18;;;;;;;1999.90;999.90;;;;;;;7.20;100.00;-18101.72;5059825;28;20196;-31
2021/04/08 09:26:06;;;;;;;1999.90;999.90;;;;;;;7.54;100.00;-18110.84;5060488;28;20618;-31
2021/04/08 09:28:55;;;;;;;1999.90;999.90;;;;;;;8.55;100.00;-18137.53;5060011;28;20616;-31
2021/04/08 09:31:42;;;;;;;1999.90;999.90;;;;;;;8.12;100.00;-18126.13;5051615;28;20338;-31
2021/04/08 09:34:28;;;;;;;1999.90;999.90;;;;;;;8.28;100.00;-18130.41;5061439;28;20302;-31
2021/04/08 09:37:14;;;;;;;1999.90;999.90;;;;;;;8.24;100.00;-18129.22;5060524;28;20200;-31
2021/04/08 09:41:03;;;;;;;1999.90;999.90;;;;;;;8.34;100.00;-18131.91;5059538;28;20480;-31
2021/04/08 09:43:52;;;;;;;1999.90;999.90;;;;;;;8.45;100.00;-18134.69;4979813;28;20207;-31
2021/04/08 09:46:39;;;;;;;1999.90;999.90;;;;;;;7.30;100.00;-18104.41;5059976;28;20204;-31
2021/04/08 09:49:48;;;;;;;1999.90;999.90;;;;;;;7.02;100.00;-18096.91;5045487;28;20477;-30
2021/04/08 09:52:53;;;;;;;1999.90;999.90;;;;;;;6.12;100.00;-18073.31;5040624;28;20267;-31
2021/04/08 09:55:41;;;;;;;1999.90;999.90;;;;;;;6.43;100.00;-18081.50;5040459;28;20205;-31
2021/04/08 09:58:29;;;;;;;1999.90;999.90;;;;;;;6.99;100.00;-18096.25;5040682;28;20225;-31
2021/04/08 10:01:15;;;;;;;1999.90;999.90;;;;;;;6.67;100.00;-18087.66;5040732;28;20328;-31
2021/04/08 10:04:13;;;;;;;1999.90;999.90;;;;;;;7.61;96.65;-18112.59;5041353;28;20200;-31
2021/04/08 10:07:05;;;;;;;1999.90;999.90;;;;;;;8.30;93.93;-18130.94;5042074;28;20209;-32
2021/04/08 10:09:54;;;;;;;1999.90;999.90;;;;;;;8.10;93.25;-18125.59;5038867;28;20206;-31
2021/04/08 10:12:39;;;;;;;1999.90;999.90;;;;;;;7.82;90.72;-18118.09;5041756;28;20197;-30
2021/04/08 10:15:38;;;;;;;1999.90;999.90;;;;;;;7.72;91.08;-18115.41;5059362;28;20204;-32
2021/04/08 10:18:42;;;;;;;1999.90;999.90;;;;;;;7.19;89.52;-18101.47;5040855;28;20526;-43
2021/04/08 10:21:30;;;;;;;1999.90;999.90;;;;;;;6.81;90.71;-18091.41;4999609;28;20214;-31
2021/04/08 10:24:16;;;;;;;1999.90;999.90;;;;;;;7.47;91.45;-18108.97;5000264;28;20226;-31
2021/04/08 10:27:11;;;;;;;1999.90;999.90;;;;;;;7.63;87.97;-18113.13;5002831;28;20202;-31
2021/04/08 10:29:57;;;;;;;1999.90;999.90;;;;;;;6.71;92.72;-18088.72;5005357;28;20194;-31
2021/04/08 10:32:44;;;;;;;1999.90;999.90;;;;;;;6.70;96.98;-18088.47;4999999;28;20301;-31
2021/04/08 10:35:30;;;;;;;1999.90;999.90;;;;;;;7.32;98.84;-18104.81;5000285;28;20202;-31
2021/04/08 10:38:16;;;;;;;1999.90;999.90;;;;;;;7.66;93.11;-18113.94;4999215;28;20221;-31
2021/04/08 10:41:02;;;;;;;1999.90;999.90;;;;;;;6.75;97.38;-18089.81;4999854;28;20487;-31
2021/04/08 10:43:48;;;;;;;1999.90;999.90;;;;;;;6.93;97.59;-18094.50;5000006;28;20200;-31
2021/04/08 10:46:36;;;;;;;1999.90;999.90;;;;;;;6.95;93.67;-18095.16;5000472;28;20270;-31
2021/04/08 10:49:27;;;;;;;1999.90;999.90;;;;;;;6.86;93.48;-18092.88;5000736;28;20340;-31
2021/04/08 10:52:16;;;;;;;1999.90;999.90;;;;;;;6.60;96.14;-18085.78;5000502;28;20203;-31
2021/04/08 10:55:10;;;;;;;1999.90;999.90;;;;;;;7.03;95.21;-18097.31;5000139;28;20391;-31
2021/04/08 10:57:59;;;;;;;1999.90;999.90;;;;;;;6.59;93.62;-18085.50;4999776;28;20200;-31
2021/04/08 11:00:44;;;;;;;1999.90;999.90;;;;;;;7.02;93.45;-18096.91;4999642;28;20218;-31
2021/04/08 11:03:31;;;;;;;1999.90;999.90;;;;;;;6.97;94.63;-18095.56;5000690;28;20204;-31
2021/04/08 11:06:25;;;;;;;1999.90;999.90;;;;;;;6.89;89.75;-18093.69;5004736;28;20209;-31
2021/04/08 11:09:21;;;;;;;1999.90;999.90;;;;;;;6.77;88.39;-18090.34;4999723;28;20206;-30
2021/04/08 11:12:19;;;;;;;1999.90;999.90;;;;;;;7.25;88.13;-18103.22;4999417;28;20227;-31
2021/04/08 11:15:07;;;;;;;1999.90;999.90;;;;;;;7.39;84.70;-18106.69;4998977;28;20305;-31
2021/04/08 11:17:56;;;;;;;1999.90;999.90;;;;;;;7.83;83.78;-18118.50;4999148;28;20203;-31
2021/04/08 11:20:47;;;;;;;1999.90;999.90;;;;;;;8.45;81.03;-18134.84;5030722;28;20229;-31
2021/04/08 11:23:34;;;;;;;1999.90;999.90;;;;;;;8.46;76.16;-18135.09;5050088;28;20294;-31
2021/04/08 11:26:22;;;;;;;1999.90;999.90;;;;;;;9.18;70.46;-18154.00;5038170;28;20599;-31
2021/04/08 11:29:13;;;;;;;1999.90;999.90;;;;;;;10.27;69.56;-18182.75;5037783;28;20252;-32
2021/04/08 11:32:04;;;;;;;1999.90;999.90;;;;;;;9.50;58.62;-18162.41;5038914;28;20573;-31
2021/04/08 11:34:54;;;;;;;1999.90;999.90;;;;;;;11.38;62.22;-18212.16;5037658;28;20201;-32
2021/04/08 11:37:41;;;;;;;1999.90;999.90;;;;;;;11.32;58.68;-18210.56;5037243;28;20613;-31
2021/04/08 11:40:27;;;;;;;1999.90;999.90;;;;;;;9.58;58.63;-18164.69;5037659;28;20197;-31
2021/04/08 11:43:28;;;;;;;1999.90;999.90;;;;;;;8.63;61.64;-18139.53;5037346;28;20417;-31
2021/04/08 11:46:26;;;;;;;1999.90;999.90;;;;;;;8.05;63.18;-18124.13;5037366;28;20268;-31
2021/04/08 11:49:19;;;;;;;1999.90;999.90;;;;;;;8.06;63.14;-18124.38;5038645;28;20287;-31
2021/04/08 11:52:11;;;;;;;1999.90;999.90;;;;;;;7.98;64.23;-18122.25;5037950;28;20201;-31
2021/04/08 11:55:04;;;;;;;1999.90;999.90;;;;;;;8.00;63.64;-18122.91;5037359;28;20200;-31
2021/04/08 11:57:54;;;;;;;1999.90;999.90;;;;;;;8.43;64.41;-18134.31;5037218;28;20201;-30
2021/04/08 12:00:46;;;;;;;1999.90;999.90;;;;;;;8.47;66.04;-18135.38;5036452;28;20205;-30
2021/04/08 12:03:36;;;;;;;1999.90;999.90;;;;;;;9.04;65.45;-18150.38;5037081;28;20201;-31
2021/04/08 12:06:22;;;;;;;1999.90;999.90;;;;;;;9.02;64.32;-18149.84;5038320;28;20198;-31
2021/04/08 12:09:10;;;;;;;1999.90;999.90;;;;;;;8.74;64.14;-18142.34;5039997;28;20587;-31
2021/04/08 12:12:03;;;;;;;1999.90;999.90;;;;;;;8.63;63.51;-18139.66;5036850;28;20205;-32
2021/04/08 12:14:58;;;;;;;1999.90;999.90;;;;;;;7.90;65.56;-18120.38;5036598;28;20202;-31
2021/04/08 12:17:55;;;;;;;1999.90;999.90;;;;;;;8.55;63.48;-18137.53;5037538;28;20201;-31
2021/04/08 12:20:49;;;;;;;1999.90;999.90;;;;;;;8.43;65.01;-18134.16;5036450;28;20237;-31
2021/04/08 12:23:43;;;;;;;1999.90;999.90;;;;;;;8.54;68.14;-18137.25;5044945;28;20290;-32
2021/04/08 12:26:32;;;;;;;1999.90;999.90;;;;;;;9.11;63.71;-18152.09;5053782;28;20200;-31
2021/04/08 12:29:21;;;;;;;1999.90;999.90;;;;;;;9.93;57.73;-18173.91;5053373;28;20224;-31